Station Historical Data
Daily Summary for July 2, 2017 Units:  English    Metric   Both
« Previous Day
Next Day »
Daily Weekly Monthly Yearly Custom
  High: Low: Average:
Temperature: 86.5 °F 69.2 °F 75.9 °F
Dew Point: 75.4 °F 67.3 °F 70.3 °F
Humidity: 94% 64% 84%
Wind Speed: 5.1mph 0.0mph 3.5mph
Wind Gust: 5.1mph - -
Wind- - ESE
Pressure: 30.17 in 30.07 in -
Precipitation: 0.02 in    
Historical Graphs
 
 
Tabular Data for July 2, 2017
Time Temperature Dew Point Pressure Wind Wind Speed Wind Gust Humidity Rainfall Rate (Hourly) solar Conditions
00:04 70.6 °F 68.8 °F 30.14 in NNE 5.1 mph   94% 0.00 in WeatherDisplay:10.37 W/m2 OVC
00:09 70.4 °F 68.3 °F 30.15 in NNE 5.1 mph 5.1 mph 93% 0.00 in WeatherDisplay:10.37 W/m2 OVC
00:14 70.3 °F 68.5 °F 30.14 in NNE 5.1 mph   94% 0.00 in WeatherDisplay:10.37 W/m2 OVC
00:19 70.3 °F 68.5 °F 30.14 in NNE 5.1 mph   94% 0.00 in WeatherDisplay:10.37 W/m2 FEW
00:24 70.2 °F 68.4 °F 30.14 in NNE 5.1 mph   94% 0.00 in WeatherDisplay:10.37 W/m2 FEW
00:29 70.1 °F 68.3 °F 30.14 in NNW 5.1 mph   94% 0.00 in WeatherDisplay:10.37 W/m2 FEW
00:34 70.0 °F 68.2 °F 30.14 in NNW 5.1 mph   94% 0.00 in WeatherDisplay:10.37 W/m2 FEW
00:39 69.9 °F 68.1 °F 30.14 in NNW 5.1 mph   94% 0.00 in WeatherDisplay:10.37 W/m2 FEW
00:44 69.9 °F 68.1 °F 30.14 in NNW 5.1 mph   94% 0.00 in WeatherDisplay:10.37 W/m2 FEW
00:49 69.8 °F 68.0 °F 30.14 in NNW 5.1 mph   94% 0.00 in WeatherDisplay:10.37 W/m2 SCT
00:54 69.7 °F 67.9 °F 30.14 in NNW 5.1 mph   94% 0.00 in WeatherDisplay:10.37 W/m2 SCT
01:00 69.6 °F 67.8 °F 30.14 in NNW 5.1 mph   94% 0.00 in WeatherDisplay:10.37 W/m2 SCT
01:05 69.4 °F 67.6 °F 30.13 in Calm     94% 0.00 in WeatherDisplay:10.37 W/m2 SCT
01:10 69.4 °F 67.6 °F 30.13 in NNW 5.1 mph   94% 0.00 in WeatherDisplay:10.37 W/m2 SCT
01:15 69.3 °F 67.5 °F 30.14 in Calm     94% 0.00 in WeatherDisplay:10.37 W/m2 SCT
01:20 69.3 °F 67.5 °F 30.14 in Calm     94% 0.00 in WeatherDisplay:10.37 W/m2 BKN
01:25 69.2 °F 67.4 °F 30.14 in Calm     94% 0.00 in WeatherDisplay:10.37 W/m2 BKN
01:30 69.2 °F 67.4 °F 30.14 in Calm     94% 0.00 in WeatherDisplay:10.37 W/m2 BKN
01:35 69.3 °F 67.5 °F 30.14 in Calm     94% 0.00 in WeatherDisplay:10.37 W/m2 BKN
01:40 69.4 °F 67.6 °F 30.14 in Calm     94% 0.00 in WeatherDisplay:10.37 W/m2 BKN
01:45 69.4 °F 67.6 °F 30.14 in Calm     94% 0.00 in WeatherDisplay:10.37 W/m2 BKN
01:50 69.4 °F 67.6 °F 30.13 in Calm     94% 0.00 in WeatherDisplay:10.37 W/m2 BKN
01:55 69.4 °F 67.6 °F 30.13 in Calm     94% 0.00 in WeatherDisplay:10.37 W/m2 BKN
02:00 69.4 °F 67.6 °F 30.13 in Calm     94% 0.00 in WeatherDisplay:10.37 W/m2 BKN
02:05 69.4 °F 67.6 °F 30.13 in Calm     94% 0.00 in WeatherDisplay:10.37 W/m2 BKN
02:10 69.3 °F 67.5 °F 30.13 in NNW 5.1 mph   94% 0.00 in WeatherDisplay:10.37 W/m2 BKN
02:15 69.3 °F 67.5 °F 30.13 in Calm     94% 0.00 in WeatherDisplay:10.37 W/m2 BKN
02:20 69.3 °F 67.5 °F 30.12 in Calm     94% 0.00 in WeatherDisplay:10.37 W/m2 SCT
02:25 69.4 °F 67.6 °F 30.12 in Calm     94% 0.00 in WeatherDisplay:10.37 W/m2 SCT
02:30 69.4 °F 67.6 °F 30.12 in Calm     94% 0.00 in WeatherDisplay:10.37 W/m2 SCT
02:35 69.4 °F 67.6 °F 30.12 in NNW 5.1 mph   94% 0.00 in WeatherDisplay:10.37 W/m2 SCT
02:40 69.4 °F 67.6 °F 30.12 in Calm     94% 0.00 in WeatherDisplay:10.37 W/m2 SCT
02:45 69.4 °F 67.3 °F 30.11 in Calm     93% 0.00 in WeatherDisplay:10.37 W/m2 SCT
02:50 69.4 °F 67.3 °F 30.11 in NNW 5.1 mph   93% 0.00 in WeatherDisplay:10.37 W/m2 SCT
02:55 69.4 °F 67.3 °F 30.11 in North 5.1 mph   93% 0.00 in WeatherDisplay:10.37 W/m2 SCT
03:01 69.4 °F 67.3 °F 30.11 in North 5.1 mph   93% 0.00 in WeatherDisplay:10.37 W/m2 SCT
03:06 69.4 °F 67.3 °F 30.11 in North 5.1 mph   93% 0.00 in WeatherDisplay:10.37 W/m2 SCT
03:11 69.4 °F 67.3 °F 30.11 in North 5.1 mph   93% 0.00 in WeatherDisplay:10.37 W/m2 SCT
03:16 69.4 °F 67.3 °F 30.10 in North 5.1 mph   93% 0.00 in WeatherDisplay:10.37 W/m2 BKN
03:21 69.4 °F 67.3 °F 30.10 in North 5.1 mph   93% 0.00 in WeatherDisplay:10.37 W/m2 BKN
03:26 69.4 °F 67.3 °F 30.10 in North 5.1 mph   93% 0.00 in WeatherDisplay:10.37 W/m2 BKN
03:31 69.4 °F 67.3 °F 30.10 in North 5.1 mph   93% 0.00 in WeatherDisplay:10.37 W/m2 BKN
03:36 69.4 °F 67.3 °F 30.09 in North 5.1 mph   93% 0.00 in WeatherDisplay:10.37 W/m2 BKN
03:41 69.4 °F 67.3 °F 30.09 in North 5.1 mph   93% 0.00 in WeatherDisplay:10.37 W/m2 BKN
03:46 69.4 °F 67.3 °F 30.09 in North 5.1 mph   93% 0.00 in WeatherDisplay:10.37 W/m2 BKN
03:51 69.4 °F 67.3 °F 30.09 in North 5.1 mph   93% 0.00 in WeatherDisplay:10.37 W/m2 BKN
03:56 69.4 °F 67.3 °F 30.10 in North 5.1 mph   93% 0.00 in WeatherDisplay:10.37 W/m2 BKN
04:01 69.4 °F 67.3 °F 30.10 in North 5.1 mph   93% 0.00 in WeatherDisplay:10.37 W/m2 BKN
04:06 69.4 °F 67.3 °F 30.10 in North 5.1 mph   93% 0.00 in WeatherDisplay:10.37 W/m2 BKN
04:11 69.4 °F 67.3 °F 30.10 in North 5.1 mph   93% 0.00 in WeatherDisplay:10.37 W/m2 BKN
04:16 69.4 °F 67.3 °F 30.10 in North 5.1 mph   93% 0.00 in WeatherDisplay:10.37 W/m2 CLR
04:22 69.4 °F 67.3 °F 30.10 in North 5.1 mph   93% 0.00 in WeatherDisplay:10.37 W/m2 CLR
04:27 69.4 °F 67.3 °F 30.10 in North 5.1 mph   93% 0.00 in WeatherDisplay:10.37 W/m2 CLR
04:32 69.4 °F 67.3 °F 30.10 in North 5.1 mph   93% 0.00 in WeatherDisplay:10.37 W/m2 CLR
04:37 69.4 °F 67.3 °F 30.10 in North 5.1 mph   93% 0.00 in WeatherDisplay:10.37 W/m2 CLR
04:42 69.4 °F 67.3 °F 30.09 in North 5.1 mph   93% 0.00 in WeatherDisplay:10.37 W/m2 CLR
04:47 69.4 °F 67.3 °F 30.09 in North 5.1 mph   93% 0.00 in WeatherDisplay:10.37 W/m2 SCT
04:52 69.4 °F 67.3 °F 30.09 in North 5.1 mph   93% 0.00 in WeatherDisplay:10.37 W/m2 SCT
04:57 69.4 °F 67.3 °F 30.09 in North 5.1 mph   93% 0.00 in WeatherDisplay:10.37 W/m2 SCT
05:02 69.4 °F 67.3 °F 30.09 in North 5.1 mph   93% 0.00 in WeatherDisplay:10.37 W/m2 SCT
05:07 69.4 °F 67.3 °F 30.09 in North 5.1 mph   93% 0.00 in WeatherDisplay:10.37 W/m2 SCT
05:12 69.4 °F 67.3 °F 30.09 in North 5.1 mph   93% 0.00 in WeatherDisplay:10.37 W/m2 SCT
05:17 69.4 °F 67.3 °F 30.09 in North 5.1 mph   93% 0.00 in WeatherDisplay:10.37 W/m2 OVC
05:23 69.4 °F 67.3 °F 30.09 in North 5.1 mph   93% 0.00 in WeatherDisplay:10.37 W/m2 OVC
05:24 69.4 °F 67.3 °F 30.10 in North 5.1 mph   93% 0.00 in WeatherDisplay:10.37 W/m2 OVC
05:29 69.4 °F 67.3 °F 30.10 in North 5.1 mph   93% 0.00 in WeatherDisplay:10.37 W/m2 OVC
05:34 69.4 °F 67.3 °F 30.10 in North 5.1 mph   93% 0.00 in WeatherDisplay:10.37 W/m2 OVC
05:39 69.4 °F 67.3 °F 30.10 in North 5.1 mph   93% 0.00 in WeatherDisplay:10.37 W/m2 OVC
05:45 69.4 °F 67.3 °F 30.10 in Calm     93% 0.00 in WeatherDisplay:10.37 W/m2 OVC
05:50 69.4 °F 67.3 °F 30.11 in Calm     93% 0.00 in WeatherDisplay:10.37 W/m2 OVC
05:55 69.4 °F 67.3 °F 30.11 in North 5.1 mph   93% 0.00 in WeatherDisplay:10.37 W/m2 OVC
06:00 69.4 °F 67.3 °F 30.11 in North 5.1 mph   93% 0.00 in WeatherDisplay:10.37 W/m2 OVC
06:06 69.4 °F 67.3 °F 30.11 in North 5.1 mph   93% 0.00 in WeatherDisplay:10.37 W/m2 OVC
06:11 69.4 °F 67.3 °F 30.11 in North 5.1 mph   93% 0.00 in WeatherDisplay:10.37 W/m2 OVC
06:16 69.4 °F 67.3 °F 30.11 in North 5.1 mph   93% 0.00 in WeatherDisplay:10.37 W/m2 OVC
06:21 69.4 °F 67.3 °F 30.12 in North 5.1 mph   93% 0.00 in WeatherDisplay:10.37 W/m2 OVC
06:26 69.4 °F 67.3 °F 30.12 in North 5.1 mph   93% 0.00 in WeatherDisplay:10.37 W/m2 OVC
06:31 69.4 °F 67.3 °F 30.12 in North 5.1 mph   93% 0.00 in WeatherDisplay:10.37 W/m2 OVC
06:36 69.4 °F 67.3 °F 30.12 in North 5.1 mph   93% 0.00 in WeatherDisplay:10.37 W/m2 OVC
06:41 69.4 °F 67.3 °F 30.12 in North 5.1 mph   93% 0.00 in WeatherDisplay:10.37 W/m2 OVC
06:46 69.4 °F 67.3 °F 30.12 in North 5.1 mph   93% 0.00 in WeatherDisplay:10.37 W/m2 OVC
06:49 69.4 °F 67.3 °F 30.12 in North 5.1 mph   93% 0.00 in WeatherDisplay:10.37 W/m2 OVC
06:54 69.4 °F 67.3 °F 30.13 in North 5.1 mph   93% 0.00 in WeatherDisplay:10.37 W/m2 OVC
06:59 69.4 °F 67.3 °F 30.13 in North 5.1 mph   93% 0.00 in WeatherDisplay:10.37 W/m2 OVC
07:04 69.4 °F 67.3 °F 30.13 in North 5.1 mph   93% 0.00 in WeatherDisplay:10.37 W/m2 OVC
07:09 69.4 °F 67.3 °F 30.13 in North 5.1 mph   93% 0.00 in WeatherDisplay:10.37 W/m2 OVC
07:14 69.4 °F 67.3 °F 30.13 in North 5.1 mph   93% 0.00 in WeatherDisplay:10.37 W/m2 OVC
07:19 69.4 °F 67.3 °F 30.13 in North 5.1 mph   93% 0.00 in WeatherDisplay:10.37 W/m2 OVC
07:24 69.4 °F 67.3 °F 30.13 in North 5.1 mph   93% 0.00 in WeatherDisplay:10.37 W/m2 OVC
07:29 69.4 °F 67.3 °F 30.14 in North 5.1 mph   93% 0.00 in WeatherDisplay:10.37 W/m2 OVC
07:34 69.4 °F 67.3 °F 30.14 in North 5.1 mph   93% 0.00 in WeatherDisplay:10.37 W/m2 OVC
07:39 69.4 °F 67.3 °F 30.14 in North 5.1 mph   93% 0.00 in WeatherDisplay:10.37 W/m2 OVC
07:44 69.4 °F 67.3 °F 30.14 in North 5.1 mph   93% 0.00 in WeatherDisplay:10.37 W/m2 OVC
07:50 69.4 °F 67.3 °F 30.14 in Calm     93% 0.00 in WeatherDisplay:10.37 W/m2 OVC
07:55 69.4 °F 67.3 °F 30.14 in Calm     93% 0.00 in WeatherDisplay:10.37 W/m2 OVC
08:00 69.4 °F 67.3 °F 30.14 in Calm     93% 0.00 in WeatherDisplay:10.37 W/m2 OVC
08:05 69.4 °F 67.3 °F 30.15 in North 5.1 mph   93% 0.00 in WeatherDisplay:10.37 W/m2 OVC
08:10 69.4 °F 67.3 °F 30.15 in Calm     93% 0.00 in WeatherDisplay:10.37 W/m2 OVC
08:15 70.6 °F 68.8 °F 30.15 in Calm     94% 0.00 in WeatherDisplay:10.37 W/m2 OVC
08:20 70.7 °F 68.9 °F 30.15 in Calm   1.0 mph 94% 0.00 in WeatherDisplay:10.37 W/m2 BKN
08:25 70.9 °F 69.1 °F 30.16 in Calm   1.0 mph 94% 0.00 in WeatherDisplay:10.37 W/m2 BKN
08:30 71.1 °F 69.3 °F 30.16 in Calm     94% 0.00 in WeatherDisplay:10.37 W/m2 BKN
08:35 71.2 °F 69.4 °F 30.16 in Calm   1.0 mph 94% 0.00 in WeatherDisplay:10.37 W/m2 BKN
08:40 71.2 °F 69.4 °F 30.16 in Calm   1.0 mph 94% 0.00 in WeatherDisplay:10.37 W/m2 BKN
08:45 71.4 °F 69.5 °F 30.16 in Calm     94% 0.00 in WeatherDisplay:10.37 W/m2 BKN
08:50 71.7 °F 69.9 °F 30.16 in Calm     94% 0.00 in WeatherDisplay:10.37 W/m2 BKN
08:55 71.7 °F 69.9 °F 30.16 in WNW 5.1 mph   94% 0.00 in WeatherDisplay:10.37 W/m2 BKN
09:00 71.9 °F 70.1 °F 30.16 in Calm     94% 0.00 in WeatherDisplay:10.37 W/m2 BKN
09:05 72.1 °F 70.3 °F 30.16 in Calm   1.0 mph 94% 0.00 in WeatherDisplay:10.37 W/m2 BKN
09:10 72.0 °F 70.2 °F 30.16 in Calm   1.0 mph 94% 0.00 in WeatherDisplay:10.37 W/m2 BKN
09:15 72.3 °F 70.5 °F 30.16 in Calm   1.0 mph 94% 0.00 in WeatherDisplay:10.37 W/m2 BKN
09:20 72.2 °F 70.4 °F 30.16 in Calm   1.0 mph 94% 0.00 in WeatherDisplay:10.37 W/m2 BKN
09:25 72.4 °F 70.6 °F 30.16 in Calm   1.0 mph 94% 0.00 in WeatherDisplay:10.37 W/m2 BKN
09:30 72.7 °F 70.9 °F 30.16 in Calm     94% 0.00 in WeatherDisplay:10.37 W/m2 BKN
09:35 73.0 °F 71.2 °F 30.16 in SW 5.1 mph   94% 0.00 in WeatherDisplay:10.37 W/m2 BKN
09:40 73.2 °F 71.4 °F 30.16 in Calm   2.0 mph 94% 0.00 in WeatherDisplay:10.37 W/m2 BKN
09:45 73.2 °F 71.4 °F 30.17 in Calm   1.0 mph 94% 0.00 in WeatherDisplay:10.37 W/m2 BKN
09:50 73.4 °F 71.6 °F 30.16 in Calm   3.0 mph 94% 0.00 in WeatherDisplay:10.37 W/m2 BKN
09:55 73.7 °F 71.9 °F 30.16 in Calm   2.0 mph 94% 0.00 in WeatherDisplay:10.37 W/m2 BKN
10:00 74.1 °F 71.9 °F 30.16 in Calm   2.0 mph 93% 0.00 in WeatherDisplay:10.37 W/m2 BKN
10:05 74.4 °F 72.0 °F 30.16 in Calm   3.0 mph 92% 0.00 in WeatherDisplay:10.37 W/m2 BKN
10:07 74.6 °F 71.5 °F 30.16 in SW 5.1 mph 5.1 mph 90% 0.00 in WeatherDisplay:10.37 W/m2 BKN
10:12 75.1 °F 71.6 °F 30.16 in WSW 5.1 mph 5.1 mph 89% 0.00 in WeatherDisplay:10.37 W/m2 BKN
10:17 75.9 °F 72.1 °F 30.16 in SSW 5.1 mph 5.1 mph 88% 0.00 in WeatherDisplay:10.37 W/m2 BKN
10:22 76.6 °F 73.1 °F 30.16 in SSW 5.1 mph   89% 0.00 in WeatherDisplay:10.37 W/m2 BKN
10:27 77.4 °F 73.9 °F 30.16 in SW 5.1 mph 5.1 mph 89% 0.00 in WeatherDisplay:10.37 W/m2 BKN
10:32 77.8 °F 73.3 °F 30.16 in SW 5.1 mph   86% 0.00 in WeatherDisplay:10.37 W/m2 BKN
10:38 78.3 °F 74.1 °F 30.16 in SW 5.1 mph   87% 0.00 in WeatherDisplay:10.37 W/m2 BKN
10:43 78.5 °F 73.3 °F 30.16 in North 5.1 mph 5.1 mph 84% 0.00 in WeatherDisplay:10.37 W/m2 BKN
10:48 78.5 °F 73.3 °F 30.16 in North 5.1 mph   84% 0.00 in WeatherDisplay:10.37 W/m2 BKN
10:53 78.6 °F 72.6 °F 30.17 in SW 5.1 mph 5.1 mph 82% 0.00 in WeatherDisplay:10.37 W/m2 BKN
10:58 78.8 °F 73.2 °F 30.17 in West 5.1 mph 5.1 mph 83% 0.00 in WeatherDisplay:10.37 W/m2 BKN
11:04 79.0 °F 73.7 °F 30.17 in WNW 5.1 mph   84% 0.00 in WeatherDisplay:10.37 W/m2 BKN
11:07 79.2 °F 73.9 °F 30.17 in WNW 5.1 mph   84% 0.00 in WeatherDisplay:10.37 W/m2 BKN
11:12 79.4 °F 73.1 °F 30.17 in NW 5.1 mph   81% 0.00 in WeatherDisplay:10.37 W/m2 BKN
11:17 79.6 °F 73.6 °F 30.17 in SW 5.1 mph 5.1 mph 82% 0.00 in WeatherDisplay:10.37 W/m2 BKN
11:22 79.6 °F 73.3 °F 30.17 in WSW 5.1 mph 5.1 mph 81% 0.00 in WeatherDisplay:10.37 W/m2 BKN
11:27 79.8 °F 73.4 °F 30.17 in SSW 5.1 mph   81% 0.00 in WeatherDisplay:10.37 W/m2 BKN
11:32 80.1 °F 74.1 °F 30.17 in WNW 5.1 mph 5.1 mph 82% 0.00 in WeatherDisplay:10.37 W/m2 BKN
11:37 80.3 °F 73.6 °F 30.17 in West 5.1 mph   80% 0.00 in WeatherDisplay:10.37 W/m2 BKN
11:42 80.4 °F 74.0 °F 30.17 in West 5.1 mph   81% 0.00 in WeatherDisplay:10.37 W/m2 BKN
11:47 80.5 °F 73.8 °F 30.17 in West 5.1 mph   80% 0.00 in WeatherDisplay:10.37 W/m2 BKN
11:52 80.7 °F 73.6 °F 30.17 in West 5.1 mph 5.1 mph 79% 0.00 in WeatherDisplay:10.37 W/m2 BKN
11:57 80.9 °F 74.1 °F 30.17 in SW 5.1 mph   80% 0.00 in WeatherDisplay:10.37 W/m2 BKN
12:02 81.2 °F 74.8 °F 30.17 in SW 5.1 mph 5.1 mph 81% 0.00 in WeatherDisplay:10.37 W/m2 BKN
12:08 81.4 °F 74.6 °F 30.16 in SSW 5.1 mph   80% 0.00 in WeatherDisplay:10.37 W/m2 BKN
12:13 81.6 °F 74.1 °F 30.16 in WNW 5.1 mph   78% 0.00 in WeatherDisplay:10.37 W/m2 BKN
12:18 81.8 °F 74.6 °F 30.16 in West 5.1 mph   79% 0.00 in WeatherDisplay:10.37 W/m2 BKN
12:23 81.8 °F 74.3 °F 30.16 in NW 5.1 mph   78% 0.00 in WeatherDisplay:10.37 W/m2 BKN
12:28 81.8 °F 73.9 °F 30.16 in SSW 5.1 mph 5.1 mph 77% 0.00 in WeatherDisplay:10.37 W/m2 BKN
12:33 82.0 °F 73.7 °F 30.16 in SSW 5.1 mph 5.1 mph 76% 0.00 in WeatherDisplay:10.37 W/m2 BKN
12:38 82.3 °F 74.0 °F 30.16 in SW 5.1 mph 5.1 mph 76% 0.00 in WeatherDisplay:10.37 W/m2 BKN
12:43 82.6 °F 74.3 °F 30.16 in South 5.1 mph 5.1 mph 76% 0.00 in WeatherDisplay:10.37 W/m2 BKN
12:48 82.9 °F 74.6 °F 30.16 in SSW 5.1 mph   76% 0.00 in WeatherDisplay:10.37 W/m2 BKN
12:53 82.9 °F 74.2 °F 30.16 in SW 5.1 mph 5.1 mph 75% 0.00 in WeatherDisplay:10.37 W/m2 BKN
12:58 83.0 °F 75.4 °F 30.16 in SW 5.1 mph   78% 0.00 in WeatherDisplay:10.37 W/m2 BKN
13:03 83.2 °F 74.8 °F 30.15 in SW 5.1 mph 5.1 mph 76% 0.00 in WeatherDisplay:10.37 W/m2 BKN
13:08 83.4 °F 75.4 °F 30.15 in West 5.1 mph   77% 0.00 in WeatherDisplay:10.37 W/m2 BKN
13:13 83.3 °F 74.5 °F 30.15 in NW 5.1 mph   75% 0.00 in WeatherDisplay:10.37 W/m2 BKN
13:19 83.3 °F 74.5 °F 30.15 in SW 5.1 mph 5.1 mph 75% 0.00 in WeatherDisplay:10.37 W/m2 BKN
13:20 83.3 °F 74.9 °F 30.15 in Calm   1.0 mph 76% 0.00 in WeatherDisplay:10.37 W/m2 BKN
13:25 83.7 °F 74.9 °F 30.15 in SW 5.1 mph 5.1 mph 75% 0.00 in WeatherDisplay:10.37 W/m2 BKN
13:30 84.2 °F 75.4 °F 30.14 in Calm   2.0 mph 75% 0.00 in WeatherDisplay:10.37 W/m2 BKN
13:35 84.8 °F 75.2 °F 30.14 in West 5.1 mph 5.1 mph 73% 0.00 in WeatherDisplay:10.37 W/m2 BKN
13:40 85.1 °F 75.1 °F 30.14 in Calm   1.0 mph 72% 0.00 in WeatherDisplay:10.37 W/m2 BKN
13:45 85.4 °F 74.0 °F 30.14 in WSW 1.0 mph 3.0 mph 69% 0.00 in WeatherDisplay:10.37 W/m2 BKN
13:50 85.6 °F 75.1 °F 30.13 in SW 5.1 mph   71% 0.00 in WeatherDisplay:10.37 W/m2 BKN
13:55 85.9 °F 73.7 °F 30.13 in Calm   2.0 mph 67% 0.00 in WeatherDisplay:10.37 W/m2 BKN
14:00 86.1 °F 73.4 °F 30.13 in Calm   1.0 mph 66% 0.00 in WeatherDisplay:10.37 W/m2 BKN
14:05 86.3 °F 73.6 °F 30.12 in SW 5.1 mph   66% 0.00 in WeatherDisplay:10.37 W/m2 BKN
14:10 86.5 °F 73.3 °F 30.12 in Calm   3.0 mph 65% 0.00 in WeatherDisplay:10.37 W/m2 BKN
14:15 86.5 °F 72.9 °F 30.12 in West 1.0 mph 3.0 mph 64% 0.00 in WeatherDisplay:10.37 W/m2 BKN
14:20 86.3 °F 72.7 °F 30.12 in West 1.0 mph 2.0 mph 64% 0.00 in WeatherDisplay:10.37 W/m2 BKN
14:25 86.0 °F 72.9 °F 30.12 in Calm   1.0 mph 65% 0.00 in WeatherDisplay:10.37 W/m2 BKN
14:30 86.2 °F 73.0 °F 30.11 in SW 5.1 mph 5.1 mph 65% 0.00 in WeatherDisplay:10.37 W/m2 BKN
14:35 85.9 °F 72.3 °F 30.11 in Calm   2.0 mph 64% 0.00 in WeatherDisplay:10.37 W/m2 BKN
14:40 85.7 °F 72.6 °F 30.11 in Calm   1.0 mph 65% 0.00 in WeatherDisplay:10.37 W/m2 BKN
14:45 85.6 °F 73.8 °F 30.11 in SW 5.1 mph   68% 0.00 in WeatherDisplay:10.37 W/m2 BKN
14:50 85.6 °F 73.8 °F 30.11 in Calm   2.0 mph 68% 0.00 in WeatherDisplay:10.37 W/m2 BKN
14:55 85.5 °F 73.7 °F 30.11 in Calm   1.0 mph 68% 0.00 in WeatherDisplay:10.37 W/m2 BKN
15:00 85.2 °F 72.6 °F 30.11 in Calm   1.0 mph 66% 0.00 in WeatherDisplay:10.37 W/m2 BKN
15:05 85.1 °F 73.4 °F 30.11 in West 1.0 mph 3.0 mph 68% 0.00 in WeatherDisplay:10.37 W/m2 BKN
15:10 85.2 °F 71.6 °F 30.10 in West 5.1 mph 5.1 mph 64% 0.00 in WeatherDisplay:10.37 W/m2 BKN
15:15 85.3 °F 73.1 °F 30.10 in Calm     67% 0.00 in WeatherDisplay:10.37 W/m2 BKN
15:20 85.3 °F 73.6 °F 30.10 in Calm   1.0 mph 68% 0.00 in WeatherDisplay:10.37 W/m2 BKN
15:25 85.2 °F 72.1 °F 30.10 in Calm   1.0 mph 65% 0.00 in WeatherDisplay:10.37 W/m2 BKN
15:30 85.1 °F 72.9 °F 30.10 in Calm   1.0 mph 67% 0.00 in WeatherDisplay:10.37 W/m2 BKN
15:35 85.2 °F 73.9 °F 30.10 in Calm   1.0 mph 69% 0.00 in WeatherDisplay:10.37 W/m2 BKN
15:40 85.4 °F 73.2 °F 30.09 in Calm   1.0 mph 67% 0.00 in WeatherDisplay:10.37 W/m2 BKN
15:45 85.4 °F 73.2 °F 30.09 in NW 5.1 mph 5.1 mph 67% 0.00 in WeatherDisplay:10.37 W/m2 BKN
15:50 85.4 °F 73.6 °F 30.09 in Calm     68% 0.00 in WeatherDisplay:10.37 W/m2 BKN
15:55 85.4 °F 72.7 °F 30.08 in Calm     66% 0.00 in WeatherDisplay:10.37 W/m2 BKN
16:00 85.4 °F 72.7 °F 30.08 in NNW 5.1 mph   66% 0.00 in WeatherDisplay:10.37 W/m2 BKN
16:05 85.7 °F 73.9 °F 30.08 in Calm   2.0 mph 68% 0.00 in WeatherDisplay:10.37 W/m2 BKN
16:10 85.8 °F 74.0 °F 30.08 in Calm     68% 0.00 in WeatherDisplay:10.37 W/m2 BKN
16:15 85.9 °F 73.7 °F 30.08 in Calm   1.0 mph 67% 0.01 in WeatherDisplay:10.37 W/m2 RA
16:20 85.7 °F 74.4 °F 30.09 in NNW 5.1 mph 5.1 mph 69% 0.01 in WeatherDisplay:10.37 W/m2 BKN
16:25 85.3 °F 74.4 °F 30.09 in Calm     70% 0.00 in WeatherDisplay:10.37 W/m2 BKN
16:30 85.0 °F 75.0 °F 30.08 in Calm   1.0 mph 72% 0.00 in WeatherDisplay:10.37 W/m2 BKN
16:35 84.6 °F 73.3 °F 30.08 in Calm   1.0 mph 69% 0.00 in WeatherDisplay:10.37 W/m2 BKN
16:40 84.6 °F 74.2 °F 30.08 in Calm   1.0 mph 71% 0.00 in WeatherDisplay:10.37 W/m2 BKN
16:45 85.0 °F 74.1 °F 30.08 in Calm   1.0 mph 70% 0.00 in WeatherDisplay:10.37 W/m2 BKN
16:50 85.2 °F 73.0 °F 30.08 in Calm   1.0 mph 67% 0.00 in WeatherDisplay:10.37 W/m2 BKN
16:55 85.0 °F 73.7 °F 30.08 in Calm     69% 0.00 in WeatherDisplay:10.37 W/m2 BKN
17:00 84.5 °F 74.9 °F 30.08 in Calm   1.0 mph 73% 0.00 in WeatherDisplay:10.37 W/m2 BKN
17:05 84.5 °F 74.8 °F 30.08 in Calm   1.0 mph 73% 0.00 in WeatherDisplay:10.37 W/m2 BKN
17:10 84.9 °F 74.8 °F 30.08 in Calm     72% 0.00 in WeatherDisplay:10.37 W/m2 BKN
17:15 85.4 °F 74.1 °F 30.08 in ENE 5.1 mph   69% 0.01 in WeatherDisplay:10.37 W/m2 BKN
17:20 85.7 °F 74.3 °F 30.08 in Calm   1.0 mph 69% 0.00 in WeatherDisplay:10.37 W/m2 BKN
17:25 86.0 °F 75.1 °F 30.08 in West 5.1 mph 5.1 mph 70% 0.00 in WeatherDisplay:10.37 W/m2 BKN
17:30 85.7 °F 73.5 °F 30.08 in Calm   1.0 mph 67% 0.00 in WeatherDisplay:10.37 W/m2 BKN
17:35 85.7 °F 73.5 °F 30.07 in Calm   1.0 mph 67% 0.00 in WeatherDisplay:10.37 W/m2 BKN
17:40 85.7 °F 73.9 °F 30.08 in SW 5.1 mph 5.1 mph 68% 0.00 in WeatherDisplay:10.37 W/m2 BKN
17:45 84.9 °F 71.4 °F 30.08 in Calm   5.0 mph 64% 0.00 in WeatherDisplay:10.37 W/m2 BKN
17:50 83.5 °F 71.4 °F 30.08 in Calm   2.0 mph 67% 0.00 in WeatherDisplay:10.37 W/m2 BKN
17:55 82.2 °F 71.0 °F 30.09 in WSW 1.0 mph 2.0 mph 69% 0.00 in WeatherDisplay:10.37 W/m2 BKN
18:00 81.2 °F 70.1 °F 30.08 in Calm   2.0 mph 69% 0.00 in WeatherDisplay:10.37 W/m2 BKN
18:05 80.6 °F 70.3 °F 30.09 in Calm   1.0 mph 71% 0.00 in WeatherDisplay:10.37 W/m2 BKN
18:10 80.2 °F 70.8 °F 30.08 in NE 5.1 mph 5.1 mph 73% 0.00 in WeatherDisplay:10.37 W/m2 BKN
18:15 80.2 °F 71.5 °F 30.08 in Calm     75% 0.00 in WeatherDisplay:10.37 W/m2 BKN
18:20 80.1 °F 71.8 °F 30.08 in Calm   1.0 mph 76% 0.00 in WeatherDisplay:10.37 W/m2 BKN
18:22 80.0 °F 71.4 °F 30.08 in NE 5.1 mph   75% 0.00 in WeatherDisplay:10.37 W/m2 BKN
18:27 79.9 °F 72.4 °F 30.08 in ENE 5.1 mph 5.1 mph 78% 0.00 in WeatherDisplay:10.37 W/m2 BKN
18:32 79.8 °F 70.8 °F 30.08 in NE 5.1 mph 5.1 mph 74% 0.00 in WeatherDisplay:10.37 W/m2 BKN
18:37 79.8 °F 70.8 °F 30.08 in ENE 5.1 mph   74% 0.00 in WeatherDisplay:10.37 W/m2 BKN
18:42 79.8 °F 71.2 °F 30.08 in NE 5.1 mph   75% 0.00 in WeatherDisplay:10.37 W/m2 BKN
18:47 79.7 °F 71.5 °F 30.08 in NE 5.1 mph   76% 0.00 in WeatherDisplay:10.37 W/m2 BKN
18:48 79.7 °F 71.5 °F 30.08 in NE 5.1 mph   76% 0.00 in WeatherDisplay:10.37 W/m2 BKN
18:53 79.6 °F 71.8 °F 30.08 in NE 5.1 mph   77% 0.00 in WeatherDisplay:10.37 W/m2 BKN
18:59 79.4 °F 70.8 °F 30.08 in NE 5.1 mph   75% 0.00 in WeatherDisplay:10.37 W/m2 BKN
19:04 79.2 °F 69.8 °F 30.08 in NE 5.1 mph   73% 0.00 in WeatherDisplay:10.37 W/m2 BKN
19:09 79.1 °F 69.7 °F 30.08 in NE 5.1 mph   73% 0.00 in WeatherDisplay:10.37 W/m2 BKN
19:14 79.1 °F 70.1 °F 30.09 in NE 5.1 mph   74% 0.00 in WeatherDisplay:10.37 W/m2 BKN
19:19 79.0 °F 70.4 °F 30.08 in NE 5.1 mph   75% 0.00 in WeatherDisplay:10.37 W/m2 BKN
19:24 78.8 °F 70.2 °F 30.09 in NE 5.1 mph   75% 0.00 in WeatherDisplay:10.37 W/m2 BKN
19:29 78.6 °F 70.4 °F 30.09 in NE 5.1 mph   76% 0.00 in WeatherDisplay:10.37 W/m2 BKN
19:34 78.5 °F 70.7 °F 30.09 in NE 5.1 mph   77% 0.00 in WeatherDisplay:10.37 W/m2 BKN
19:39 78.2 °F 70.8 °F 30.09 in NE 5.1 mph   78% 0.00 in WeatherDisplay:10.37 W/m2 BKN
19:44 78.0 °F 71.0 °F 30.08 in NE 5.1 mph   79% 0.00 in WeatherDisplay:10.37 W/m2 BKN
19:49 77.9 °F 70.9 °F 30.08 in NE 5.1 mph   79% 0.00 in WeatherDisplay:10.37 W/m2 BKN
19:54 77.7 °F 71.0 °F 30.08 in NE 5.1 mph   80% 0.00 in WeatherDisplay:10.37 W/m2 BKN
19:59 77.4 °F 70.7 °F 30.08 in NE 5.1 mph   80% 0.00 in WeatherDisplay:10.37 W/m2 BKN
20:04 77.2 °F 70.9 °F 30.08 in NE 5.1 mph   81% 0.00 in WeatherDisplay:10.37 W/m2 BKN
20:09 77.0 °F 70.7 °F 30.09 in NE 5.1 mph   81% 0.00 in WeatherDisplay:10.37 W/m2 BKN
20:14 76.8 °F 70.5 °F 30.09 in NE 5.1 mph   81% 0.00 in WeatherDisplay:10.37 W/m2 BKN
20:19 76.6 °F 70.3 °F 30.09 in NE 5.1 mph   81% 0.00 in WeatherDisplay:10.37 W/m2 BKN
20:21 76.5 °F 70.2 °F 30.09 in NE 5.1 mph   81% 0.00 in WeatherDisplay:10.37 W/m2 BKN
20:26 76.3 °F 70.0 °F 30.09 in NE 5.1 mph   81% 0.00 in WeatherDisplay:10.37 W/m2 BKN
20:31 76.2 °F 69.9 °F 30.09 in NE 5.1 mph   81% 0.00 in WeatherDisplay:10.37 W/m2 BKN
20:36 76.0 °F 69.7 °F 30.09 in NE 5.1 mph   81% 0.00 in WeatherDisplay:10.37 W/m2 BKN
20:41 75.8 °F 69.9 °F 30.09 in NE 5.1 mph   82% 0.00 in WeatherDisplay:10.37 W/m2 BKN
20:46 75.5 °F 69.3 °F 30.08 in NE 5.1 mph   81% 0.00 in WeatherDisplay:10.37 W/m2 BKN
20:51 75.4 °F 69.5 °F 30.09 in NE 5.1 mph   82% 0.00 in WeatherDisplay:10.37 W/m2 BKN
20:56 75.3 °F 69.4 °F 30.09 in NE 5.1 mph   82% 0.00 in WeatherDisplay:10.37 W/m2 BKN
21:02 75.1 °F 69.2 °F 30.09 in NE 5.1 mph   82% 0.00 in WeatherDisplay:10.37 W/m2 BKN
21:07 75.0 °F 69.1 °F 30.09 in NE 5.1 mph   82% 0.00 in WeatherDisplay:10.37 W/m2 BKN
21:12 74.9 °F 69.0 °F 30.09 in NE 5.1 mph   82% 0.00 in WeatherDisplay:10.37 W/m2 BKN
21:17 74.8 °F 68.9 °F 30.09 in NE 5.1 mph   82% 0.00 in WeatherDisplay:10.37 W/m2 BKN
21:22 74.8 °F 68.9 °F 30.09 in NE 5.1 mph   82% 0.00 in WeatherDisplay:10.37 W/m2 BKN
21:27 75.0 °F 69.5 °F 30.10 in East 5.1 mph 5.1 mph 83% 0.00 in WeatherDisplay:10.37 W/m2 BKN
21:32 75.1 °F 69.6 °F 30.11 in ESE 5.1 mph   83% 0.00 in WeatherDisplay:10.37 W/m2 BKN
21:37 75.1 °F 69.2 °F 30.11 in North 5.1 mph   82% 0.00 in WeatherDisplay:10.37 W/m2 BKN
21:42 75.2 °F 69.7 °F 30.11 in North 5.1 mph   83% 0.00 in WeatherDisplay:10.37 W/m2 BKN
21:47 75.2 °F 69.7 °F 30.10 in NNE 5.1 mph   83% 0.00 in WeatherDisplay:10.37 W/m2 BKN
21:52 75.1 °F 69.6 °F 30.10 in NNE 5.1 mph   83% 0.00 in WeatherDisplay:10.37 W/m2 BKN
21:57 75.0 °F 69.5 °F 30.09 in NNE 5.1 mph   83% 0.00 in WeatherDisplay:10.37 W/m2 BKN
22:02 75.0 °F 69.5 °F 30.09 in NNE 5.1 mph   83% 0.00 in WeatherDisplay:10.37 W/m2 BKN
22:07 74.9 °F 69.4 °F 30.10 in NNE 5.1 mph   83% 0.00 in WeatherDisplay:10.37 W/m2 BKN
22:13 74.8 °F 69.3 °F 30.11 in North 5.1 mph   83% 0.00 in WeatherDisplay:10.37 W/m2 BKN
22:18 74.8 °F 69.3 °F 30.11 in North 5.1 mph   83% 0.00 in WeatherDisplay:10.37 W/m2 -DZ
22:23 74.7 °F 69.2 °F 30.11 in North 5.1 mph   83% 0.00 in WeatherDisplay:10.37 W/m2 -DZ
22:28 74.6 °F 69.1 °F 30.11 in North 5.1 mph   83% 0.00 in WeatherDisplay:10.37 W/m2 -DZ
22:33 74.5 °F 69.3 °F 30.10 in North 5.1 mph   84% 0.00 in WeatherDisplay:10.37 W/m2 -DZ
22:38 74.3 °F 69.1 °F 30.10 in North 5.1 mph   84% 0.00 in WeatherDisplay:10.37 W/m2 -DZ
22:43 74.2 °F 69.1 °F 30.11 in North 5.1 mph   84% 0.00 in WeatherDisplay:10.37 W/m2 -DZ
22:48 74.0 °F 68.9 °F 30.11 in North 5.1 mph   84% 0.00 in WeatherDisplay:10.37 W/m2 -DZ
22:53 74.0 °F 68.9 °F 30.11 in North 5.1 mph   84% 0.00 in WeatherDisplay:10.37 W/m2 -DZ
22:58 73.9 °F 69.1 °F 30.11 in North 5.1 mph   85% 0.00 in WeatherDisplay:10.37 W/m2 -DZ
23:03 73.7 °F 68.9 °F 30.10 in North 5.1 mph   85% 0.00 in WeatherDisplay:10.37 W/m2 -DZ
23:09 73.6 °F 69.2 °F 30.10 in North 5.1 mph   86% 0.00 in WeatherDisplay:10.37 W/m2 -DZ
23:14 73.5 °F 69.1 °F 30.10 in North 5.1 mph   86% 0.00 in WeatherDisplay:10.37 W/m2 -DZ
23:19 73.3 °F 68.9 °F 30.10 in North 5.1 mph   86% 0.00 in WeatherDisplay:10.37 W/m2 OVC
23:24 73.3 °F 69.2 °F 30.10 in North 5.1 mph   87% 0.00 in WeatherDisplay:10.37 W/m2 OVC
23:29 73.1 °F 68.7 °F 30.10 in North 5.1 mph   86% 0.00 in WeatherDisplay:10.37 W/m2 OVC
23:34 73.1 °F 69.0 °F 30.10 in North 5.1 mph   87% 0.00 in WeatherDisplay:10.37 W/m2 OVC
23:39 73.0 °F 68.9 °F 30.10 in North 5.1 mph   87% 0.00 in WeatherDisplay:10.37 W/m2 OVC
23:44 72.8 °F 68.7 °F 30.10 in North 5.1 mph   87% 0.00 in WeatherDisplay:10.37 W/m2 OVC
23:49 72.7 °F 68.6 °F 30.10 in North 5.1 mph   87% 0.00 in WeatherDisplay:10.37 W/m2 OVC
23:54 72.6 °F 68.8 °F 30.10 in North 5.1 mph   88% 0.00 in WeatherDisplay:10.37 W/m2 OVC
23:59 72.5 °F 68.7 °F 30.09 in North 5.1 mph   88% 0.00 in WeatherDisplay:10.37 W/m2 OVC
Piedmont Bend
Compliments of Weather Underground - 4 mb